Aviation Digital Data Service (ADDS)

Output produced by METARs form (0525 UTC 16 December 2017)
found at http://www.aviationweather.gov/adds/metars/
 
METAR text: KUAO 160453Z AUTO 00000KT 2SM BR BKN038 BKN055 BKN100 02/01 A3035 RMK AO2 SLP279 T00170011
Conditions at: KUAO (AURORA , OR, US) observed 0453 UTC 16 December 2017
Temperature: 1.7°C (35°F)
Dewpoint: 1.1°C (34°F) [RH = 96%]
Pressure (altimeter): 30.35 inches Hg (1027.9 mb)
[Sea-level pressure: 1027.9 mb]
Winds: calm
Visibility: 2.00 miles (3.22 km)
Ceiling: 3800 feet AGL
Clouds: broken clouds at 3800 feet AGL
broken clouds at 5500 feet AGL
broken clouds at 10000 feet AGL
Weather: BR  (mist)

METAR text: KUAO 160400Z AUTO 00000KT 2 1/2SM BR SCT080 SCT090 02/02 A3035 RMK AO2 T00220017
Conditions at: KUAO (AURORA , OR, US) observed 0400 UTC 16 December 2017
Temperature: 2.2°C (36°F)
Dewpoint: 1.7°C (35°F) [RH = 96%]
Pressure (altimeter): 30.35 inches Hg (1027.9 mb)
Winds: calm
Visibility: 2.50 miles (4.02 km)
Ceiling: at least 12,000 feet AGL
Clouds: scattered clouds at 8000 feet AGL
scattered clouds at 9000 feet AGL
Weather: BR  (mist)

METAR text: KUAO 160353Z 00000KT 4SM BR FEW049 FEW070 BKN090 02/02 A3035 RMK AO2 SLP277 T00220017
Conditions at: KUAO (AURORA , OR, US) observed 0353 UTC 16 December 2017
Temperature: 2.2°C (36°F)
Dewpoint: 1.7°C (35°F) [RH = 96%]
Pressure (altimeter): 30.35 inches Hg (1027.9 mb)
[Sea-level pressure: 1027.7 mb]
Winds: calm
Visibility: 4 miles (6 km)
Ceiling: 9000 feet AGL
Clouds: few clouds at 4900 feet AGL
few clouds at 7000 feet AGL
broken clouds at 9000 feet AGL
Weather: BR  (mist)